sensor_id;sensor_type;location;lat;lon;timestamp;temperature;humidity
14705;DHT22;7442;50.840;3.396;2023-06-22T00:01:32;25.20;58.60
14705;DHT22;7442;50.840;3.396;2023-06-22T00:04:18;25.10;58.60
14705;DHT22;7442;50.840;3.396;2023-06-22T00:07:05;25.10;58.60
14705;DHT22;7442;50.840;3.396;2023-06-22T00:09:51;25.10;58.60
14705;DHT22;7442;50.840;3.396;2023-06-22T00:12:38;25.10;58.70
14705;DHT22;7442;50.840;3.396;2023-06-22T00:15:24;25.10;58.60
14705;DHT22;7442;50.840;3.396;2023-06-22T00:18:11;25.10;58.60
14705;DHT22;7442;50.840;3.396;2023-06-22T00:20:58;25.10;58.60
14705;DHT22;7442;50.840;3.396;2023-06-22T00:23:44;25.10;58.60
14705;DHT22;7442;50.840;3.396;2023-06-22T00:26:31;25.10;58.60
14705;DHT22;7442;50.840;3.396;2023-06-22T00:29:17;25.10;58.60
14705;DHT22;7442;50.840;3.396;2023-06-22T00:32:03;25.10;58.60
14705;DHT22;7442;50.840;3.396;2023-06-22T00:34:50;25.10;58.60
14705;DHT22;7442;50.840;3.396;2023-06-22T00:37:37;25.10;58.60
14705;DHT22;7442;50.840;3.396;2023-06-22T00:40:23;25.10;58.60
14705;DHT22;7442;50.840;3.396;2023-06-22T00:43:09;25.10;58.60
14705;DHT22;7442;50.840;3.396;2023-06-22T00:45:56;25.00;58.50
14705;DHT22;7442;50.840;3.396;2023-06-22T00:48:42;25.00;58.60
14705;DHT22;7442;50.840;3.396;2023-06-22T00:51:29;25.10;58.60
14705;DHT22;7442;50.840;3.396;2023-06-22T00:54:15;25.00;58.60
14705;DHT22;7442;50.840;3.396;2023-06-22T00:57:01;25.00;58.50
14705;DHT22;7442;50.840;3.396;2023-06-22T00:59:48;25.00;58.60
14705;DHT22;7442;50.840;3.396;2023-06-22T01:02:35;25.00;58.60
14705;DHT22;7442;50.840;3.396;2023-06-22T01:05:22;25.00;58.60
14705;DHT22;7442;50.840;3.396;2023-06-22T01:08:22;25.00;58.60
14705;DHT22;7442;50.840;3.396;2023-06-22T01:11:20;25.00;58.60
14705;DHT22;7442;50.840;3.396;2023-06-22T01:14:07;25.00;58.60
14705;DHT22;7442;50.840;3.396;2023-06-22T01:16:55;25.00;58.60
14705;DHT22;7442;50.840;3.396;2023-06-22T01:19:48;25.00;58.60
14705;DHT22;7442;50.840;3.396;2023-06-22T01:22:45;24.90;58.60
14705;DHT22;7442;50.840;3.396;2023-06-22T01:25:28;25.00;58.60
14705;DHT22;7442;50.840;3.396;2023-06-22T01:28:45;25.00;58.60
14705;DHT22;7442;50.840;3.396;2023-06-22T01:31:21;24.90;58.60
14705;DHT22;7442;50.840;3.396;2023-06-22T01:34:09;24.90;58.60
14705;DHT22;7442;50.840;3.396;2023-06-22T01:36:55;24.90;58.60
14705;DHT22;7442;50.840;3.396;2023-06-22T01:39:44;24.90;58.60
14705;DHT22;7442;50.840;3.396;2023-06-22T01:42:32;24.90;58.60
14705;DHT22;7442;50.840;3.396;2023-06-22T01:45:19;24.90;58.60
14705;DHT22;7442;50.840;3.396;2023-06-22T01:48:05;24.90;58.60
14705;DHT22;7442;50.840;3.396;2023-06-22T01:50:52;24.90;58.70
14705;DHT22;7442;50.840;3.396;2023-06-22T01:53:39;24.90;58.60
14705;DHT22;7442;50.840;3.396;2023-06-22T01:56:26;24.90;58.60
14705;DHT22;7442;50.840;3.396;2023-06-22T01:59:17;24.90;58.60
14705;DHT22;7442;50.840;3.396;2023-06-22T02:02:06;24.90;58.60
14705;DHT22;7442;50.840;3.396;2023-06-22T02:05:08;24.90;58.70
14705;DHT22;7442;50.840;3.396;2023-06-22T02:08:07;24.90;58.60
14705;DHT22;7442;50.840;3.396;2023-06-22T02:10:52;24.80;58.60
14705;DHT22;7442;50.840;3.396;2023-06-22T02:13:39;24.80;58.60
14705;DHT22;7442;50.840;3.396;2023-06-22T02:16:27;24.80;58.60
14705;DHT22;7442;50.840;3.396;2023-06-22T02:19:17;24.80;58.60
14705;DHT22;7442;50.840;3.396;2023-06-22T02:22:05;24.80;58.60
14705;DHT22;7442;50.840;3.396;2023-06-22T02:24:51;24.80;58.60
14705;DHT22;7442;50.840;3.396;2023-06-22T02:27:38;24.80;58.60
14705;DHT22;7442;50.840;3.396;2023-06-22T02:30:25;24.80;58.60
14705;DHT22;7442;50.840;3.396;2023-06-22T02:33:11;24.80;58.60
14705;DHT22;7442;50.840;3.396;2023-06-22T02:35:57;24.80;58.60
14705;DHT22;7442;50.840;3.396;2023-06-22T02:38:44;24.80;58.60
14705;DHT22;7442;50.840;3.396;2023-06-22T02:41:31;24.70;58.60
14705;DHT22;7442;50.840;3.396;2023-06-22T02:44:17;24.70;58.50
14705;DHT22;7442;50.840;3.396;2023-06-22T02:47:04;24.80;58.60
14705;DHT22;7442;50.840;3.396;2023-06-22T02:49:50;24.80;58.60
14705;DHT22;7442;50.840;3.396;2023-06-22T02:52:37;24.70;58.50
14705;DHT22;7442;50.840;3.396;2023-06-22T02:55:24;24.70;58.50
14705;DHT22;7442;50.840;3.396;2023-06-22T02:58:10;24.70;58.60
14705;DHT22;7442;50.840;3.396;2023-06-22T03:00:57;24.70;58.60
14705;DHT22;7442;50.840;3.396;2023-06-22T03:03:45;24.70;58.90
14705;DHT22;7442;50.840;3.396;2023-06-22T03:06:31;24.70;58.60
14705;DHT22;7442;50.840;3.396;2023-06-22T03:09:17;24.70;58.60
14705;DHT22;7442;50.840;3.396;2023-06-22T03:12:04;24.70;58.50
14705;DHT22;7442;50.840;3.396;2023-06-22T03:14:50;24.70;58.50
14705;DHT22;7442;50.840;3.396;2023-06-22T03:17:37;24.70;58.50
14705;DHT22;7442;50.840;3.396;2023-06-22T03:20:25;24.70;58.50
14705;DHT22;7442;50.840;3.396;2023-06-22T03:23:13;24.70;58.50
14705;DHT22;7442;50.840;3.396;2023-06-22T03:25:59;24.60;58.40
14705;DHT22;7442;50.840;3.396;2023-06-22T03:28:45;24.70;58.50
14705;DHT22;7442;50.840;3.396;2023-06-22T03:31:32;24.60;58.50
14705;DHT22;7442;50.840;3.396;2023-06-22T03:34:18;24.60;58.40
14705;DHT22;7442;50.840;3.396;2023-06-22T03:37:04;24.60;58.40
14705;DHT22;7442;50.840;3.396;2023-06-22T03:39:51;24.60;58.50
14705;DHT22;7442;50.840;3.396;2023-06-22T03:42:37;24.60;58.50
14705;DHT22;7442;50.840;3.396;2023-06-22T03:45:23;24.60;58.40
14705;DHT22;7442;50.840;3.396;2023-06-22T03:48:09;24.60;58.50
14705;DHT22;7442;50.840;3.396;2023-06-22T03:50:58;24.50;58.40
14705;DHT22;7442;50.840;3.396;2023-06-22T03:53:45;24.60;58.40
14705;DHT22;7442;50.840;3.396;2023-06-22T03:56:32;24.60;58.40
14705;DHT22;7442;50.840;3.396;2023-06-22T03:59:18;24.60;58.50
14705;DHT22;7442;50.840;3.396;2023-06-22T04:02:05;24.60;58.40
14705;DHT22;7442;50.840;3.396;2023-06-22T04:04:51;24.50;58.40
14705;DHT22;7442;50.840;3.396;2023-06-22T04:07:37;24.60;58.40
14705;DHT22;7442;50.840;3.396;2023-06-22T04:10:24;24.60;58.40
14705;DHT22;7442;50.840;3.396;2023-06-22T04:13:11;24.50;58.40
14705;DHT22;7442;50.840;3.396;2023-06-22T04:15:57;24.50;58.30
14705;DHT22;7442;50.840;3.396;2023-06-22T04:18:43;24.50;58.40
14705;DHT22;7442;50.840;3.396;2023-06-22T04:21:30;24.50;58.40
14705;DHT22;7442;50.840;3.396;2023-06-22T04:24:16;24.50;58.30
14705;DHT22;7442;50.840;3.396;2023-06-22T04:27:02;24.50;58.30
14705;DHT22;7442;50.840;3.396;2023-06-22T04:29:49;24.50;58.30
14705;DHT22;7442;50.840;3.396;2023-06-22T04:32:36;24.50;58.30
14705;DHT22;7442;50.840;3.396;2023-06-22T04:35:23;24.50;58.30
14705;DHT22;7442;50.840;3.396;2023-06-22T04:38:11;24.50;58.40
14705;DHT22;7442;50.840;3.396;2023-06-22T04:40:58;24.50;58.40
14705;DHT22;7442;50.840;3.396;2023-06-22T04:43:47;24.50;58.40
14705;DHT22;7442;50.840;3.396;2023-06-22T04:46:35;24.50;58.40
14705;DHT22;7442;50.840;3.396;2023-06-22T04:49:24;24.50;58.30
14705;DHT22;7442;50.840;3.396;2023-06-22T04:52:13;24.50;58.30
14705;DHT22;7442;50.840;3.396;2023-06-22T04:55:02;24.50;58.30
14705;DHT22;7442;50.840;3.396;2023-06-22T04:57:49;24.50;58.30
14705;DHT22;7442;50.840;3.396;2023-06-22T05:00:35;24.50;58.30
14705;DHT22;7442;50.840;3.396;2023-06-22T05:03:22;24.50;58.20
14705;DHT22;7442;50.840;3.396;2023-06-22T05:06:10;24.50;58.20
14705;DHT22;7442;50.840;3.396;2023-06-22T05:08:57;24.50;58.30
14705;DHT22;7442;50.840;3.396;2023-06-22T05:11:46;24.50;58.20
14705;DHT22;7442;50.840;3.396;2023-06-22T05:14:32;24.50;58.20
14705;DHT22;7442;50.840;3.396;2023-06-22T05:17:19;24.50;58.20
14705;DHT22;7442;50.840;3.396;2023-06-22T05:20:06;24.50;58.20
14705;DHT22;7442;50.840;3.396;2023-06-22T05:22:52;24.50;58.20
14705;DHT22;7442;50.840;3.396;2023-06-22T05:25:38;24.50;58.20
14705;DHT22;7442;50.840;3.396;2023-06-22T05:28:25;24.60;58.20
14705;DHT22;7442;50.840;3.396;2023-06-22T05:31:14;24.60;58.20
14705;DHT22;7442;50.840;3.396;2023-06-22T05:34:01;24.60;58.20
14705;DHT22;7442;50.840;3.396;2023-06-22T05:36:47;24.60;58.30
14705;DHT22;7442;50.840;3.396;2023-06-22T05:39:33;24.60;58.40
14705;DHT22;7442;50.840;3.396;2023-06-22T05:42:21;24.60;58.40
14705;DHT22;7442;50.840;3.396;2023-06-22T05:45:08;24.50;60.00
14705;DHT22;7442;50.840;3.396;2023-06-22T05:47:54;24.40;59.70
14705;DHT22;7442;50.840;3.396;2023-06-22T05:50:41;24.50;59.60
14705;DHT22;7442;50.840;3.396;2023-06-22T05:53:27;24.60;59.60
14705;DHT22;7442;50.840;3.396;2023-06-22T05:56:14;24.60;59.80
14705;DHT22;7442;50.840;3.396;2023-06-22T05:59:00;24.50;59.80
14705;DHT22;7442;50.840;3.396;2023-06-22T06:01:47;24.50;59.80
14705;DHT22;7442;50.840;3.396;2023-06-22T06:04:34;24.50;59.90
14705;DHT22;7442;50.840;3.396;2023-06-22T06:07:21;24.50;60.00
14705;DHT22;7442;50.840;3.396;2023-06-22T06:10:09;24.50;61.00
14705;DHT22;7442;50.840;3.396;2023-06-22T06:12:56;24.50;60.20
14705;DHT22;7442;50.840;3.396;2023-06-22T06:15:42;24.50;60.30
14705;DHT22;7442;50.840;3.396;2023-06-22T06:18:29;24.50;60.40
14705;DHT22;7442;50.840;3.396;2023-06-22T06:21:20;24.50;60.50
14705;DHT22;7442;50.840;3.396;2023-06-22T06:24:03;24.50;60.60
14705;DHT22;7442;50.840;3.396;2023-06-22T06:26:50;24.50;60.70
14705;DHT22;7442;50.840;3.396;2023-06-22T06:29:36;24.50;60.70
14705;DHT22;7442;50.840;3.396;2023-06-22T06:32:22;24.50;60.80
14705;DHT22;7442;50.840;3.396;2023-06-22T06:35:10;24.50;60.90
14705;DHT22;7442;50.840;3.396;2023-06-22T06:37:57;24.50;60.90
14705;DHT22;7442;50.840;3.396;2023-06-22T06:40:43;24.50;60.90
14705;DHT22;7442;50.840;3.396;2023-06-22T06:43:30;24.60;60.90
14705;DHT22;7442;50.840;3.396;2023-06-22T06:46:16;24.50;61.00
14705;DHT22;7442;50.840;3.396;2023-06-22T06:49:04;24.40;62.60
14705;DHT22;7442;50.840;3.396;2023-06-22T06:51:51;24.30;62.80
14705;DHT22;7442;50.840;3.396;2023-06-22T06:54:37;24.30;63.50
14705;DHT22;7442;50.840;3.396;2023-06-22T06:57:24;24.30;63.80
14705;DHT22;7442;50.840;3.396;2023-06-22T07:00:12;24.30;64.40
14705;DHT22;7442;50.840;3.396;2023-06-22T07:02:59;24.20;64.40
14705;DHT22;7442;50.840;3.396;2023-06-22T07:05:45;24.20;64.20
14705;DHT22;7442;50.840;3.396;2023-06-22T07:08:31;24.20;64.40
14705;DHT22;7442;50.840;3.396;2023-06-22T07:11:18;24.30;64.50
14705;DHT22;7442;50.840;3.396;2023-06-22T07:14:04;24.30;64.10
14705;DHT22;7442;50.840;3.396;2023-06-22T07:16:50;24.40;64.10
14705;DHT22;7442;50.840;3.396;2023-06-22T07:19:36;24.40;64.70
14705;DHT22;7442;50.840;3.396;2023-06-22T07:22:23;24.40;64.50
14705;DHT22;7442;50.840;3.396;2023-06-22T07:25:09;24.40;64.50
14705;DHT22;7442;50.840;3.396;2023-06-22T07:27:59;24.50;65.00
14705;DHT22;7442;50.840;3.396;2023-06-22T07:30:47;24.50;64.50
14705;DHT22;7442;50.840;3.396;2023-06-22T07:33:40;24.50;64.50
14705;DHT22;7442;50.840;3.396;2023-06-22T07:36:26;24.40;64.20
14705;DHT22;7442;50.840;3.396;2023-06-22T07:39:14;24.50;64.70
14705;DHT22;7442;50.840;3.396;2023-06-22T07:42:00;24.50;64.70
14705;DHT22;7442;50.840;3.396;2023-06-22T07:44:46;24.50;65.40
14705;DHT22;7442;50.840;3.396;2023-06-22T07:47:32;24.50;65.60
14705;DHT22;7442;50.840;3.396;2023-06-22T07:50:02;24.50;65.50
14705;DHT22;7442;50.840;3.396;2023-06-22T07:52:49;24.60;65.00
14705;DHT22;7442;50.840;3.396;2023-06-22T07:55:37;24.60;65.20
14705;DHT22;7442;50.840;3.396;2023-06-22T07:58:23;24.60;65.30
14705;DHT22;7442;50.840;3.396;2023-06-22T08:01:09;24.70;65.30
14705;DHT22;7442;50.840;3.396;2023-06-22T08:03:57;24.80;64.90
14705;DHT22;7442;50.840;3.396;2023-06-22T08:06:43;24.70;65.40
14705;DHT22;7442;50.840;3.396;2023-06-22T08:09:32;24.70;65.70
14705;DHT22;7442;50.840;3.396;2023-06-22T08:12:19;24.70;65.80
14705;DHT22;7442;50.840;3.396;2023-06-22T08:15:06;24.70;65.50
14705;DHT22;7442;50.840;3.396;2023-06-22T08:17:53;24.70;65.60
14705;DHT22;7442;50.840;3.396;2023-06-22T08:20:39;24.60;65.60
14705;DHT22;7442;50.840;3.396;2023-06-22T08:23:25;24.70;65.50
14705;DHT22;7442;50.840;3.396;2023-06-22T08:26:11;24.70;65.60
14705;DHT22;7442;50.840;3.396;2023-06-22T08:28:58;24.70;65.30
14705;DHT22;7442;50.840;3.396;2023-06-22T08:31:44;24.80;65.40
14705;DHT22;7442;50.840;3.396;2023-06-22T08:35:08;24.80;66.20
14705;DHT22;7442;50.840;3.396;2023-06-22T08:37:36;24.80;66.20
14705;DHT22;7442;50.840;3.396;2023-06-22T08:40:24;24.80;66.20
14705;DHT22;7442;50.840;3.396;2023-06-22T08:43:15;24.70;66.40
14705;DHT22;7442;50.840;3.396;2023-06-22T08:46:01;24.70;66.70
14705;DHT22;7442;50.840;3.396;2023-06-22T08:48:48;24.80;66.30
14705;DHT22;7442;50.840;3.396;2023-06-22T08:51:36;24.80;66.00
14705;DHT22;7442;50.840;3.396;2023-06-22T08:54:22;24.80;66.10
14705;DHT22;7442;50.840;3.396;2023-06-22T08:57:08;24.80;66.20
14705;DHT22;7442;50.840;3.396;2023-06-22T08:59:55;24.80;66.40
14705;DHT22;7442;50.840;3.396;2023-06-22T09:02:44;24.80;66.30
14705;DHT22;7442;50.840;3.396;2023-06-22T09:05:30;24.70;66.10
14705;DHT22;7442;50.840;3.396;2023-06-22T09:08:17;24.70;66.10
14705;DHT22;7442;50.840;3.396;2023-06-22T09:11:03;24.70;66.40
14705;DHT22;7442;50.840;3.396;2023-06-22T09:13:49;24.60;66.20
14705;DHT22;7442;50.840;3.396;2023-06-22T09:16:37;24.50;66.90
14705;DHT22;7442;50.840;3.396;2023-06-22T09:19:23;24.50;67.20
14705;DHT22;7442;50.840;3.396;2023-06-22T09:22:09;24.60;67.50
14705;DHT22;7442;50.840;3.396;2023-06-22T09:24:56;24.60;67.40
14705;DHT22;7442;50.840;3.396;2023-06-22T09:27:42;24.60;67.30
14705;DHT22;7442;50.840;3.396;2023-06-22T09:30:28;24.50;67.50
14705;DHT22;7442;50.840;3.396;2023-06-22T09:33:14;24.60;67.50
14705;DHT22;7442;50.840;3.396;2023-06-22T09:38:23;24.50;66.80
14705;DHT22;7442;50.840;3.396;2023-06-22T09:41:10;24.50;67.60
14705;DHT22;7442;50.840;3.396;2023-06-22T09:43:56;24.50;67.20
14705;DHT22;7442;50.840;3.396;2023-06-22T09:46:33;24.40;67.30
14705;DHT22;7442;50.840;3.396;2023-06-22T09:49:20;24.40;67.40
14705;DHT22;7442;50.840;3.396;2023-06-22T09:52:06;24.50;73.70
14705;DHT22;7442;50.840;3.396;2023-06-22T09:54:53;24.50;76.20
14705;DHT22;7442;50.840;3.396;2023-06-22T09:57:40;24.50;76.50
14705;DHT22;7442;50.840;3.396;2023-06-22T10:00:27;24.50;73.30
14705;DHT22;7442;50.840;3.396;2023-06-22T10:03:13;24.40;70.80
14705;DHT22;7442;50.840;3.396;2023-06-22T10:06:00;24.40;71.10
14705;DHT22;7442;50.840;3.396;2023-06-22T10:08:46;24.30;71.00
14705;DHT22;7442;50.840;3.396;2023-06-22T10:11:34;24.40;70.70
14705;DHT22;7442;50.840;3.396;2023-06-22T10:14:21;24.40;70.60
14705;DHT22;7442;50.840;3.396;2023-06-22T10:17:07;24.30;71.20
14705;DHT22;7442;50.840;3.396;2023-06-22T10:19:53;24.30;73.10
14705;DHT22;7442;50.840;3.396;2023-06-22T10:22:41;24.40;73.40
14705;DHT22;7442;50.840;3.396;2023-06-22T10:25:28;24.40;72.40
14705;DHT22;7442;50.840;3.396;2023-06-22T10:28:15;24.30;71.80
14705;DHT22;7442;50.840;3.396;2023-06-22T10:31:01;24.30;71.20
14705;DHT22;7442;50.840;3.396;2023-06-22T10:33:48;24.30;70.70
14705;DHT22;7442;50.840;3.396;2023-06-22T10:36:34;24.30;70.70
14705;DHT22;7442;50.840;3.396;2023-06-22T10:39:20;24.30;69.80
14705;DHT22;7442;50.840;3.396;2023-06-22T10:42:07;24.30;70.20
14705;DHT22;7442;50.840;3.396;2023-06-22T10:44:53;24.30;71.30
14705;DHT22;7442;50.840;3.396;2023-06-22T10:47:39;24.30;71.80
14705;DHT22;7442;50.840;3.396;2023-06-22T10:50:27;24.30;71.00
14705;DHT22;7442;50.840;3.396;2023-06-22T10:53:14;24.30;70.60
14705;DHT22;7442;50.840;3.396;2023-06-22T10:56:00;24.30;71.30
14705;DHT22;7442;50.840;3.396;2023-06-22T10:58:47;24.30;72.30
14705;DHT22;7442;50.840;3.396;2023-06-22T11:01:33;24.30;72.60
14705;DHT22;7442;50.840;3.396;2023-06-22T11:04:19;24.30;73.40
14705;DHT22;7442;50.840;3.396;2023-06-22T11:07:06;24.20;73.70
14705;DHT22;7442;50.840;3.396;2023-06-22T11:09:52;24.20;73.50
14705;DHT22;7442;50.840;3.396;2023-06-22T11:12:39;24.20;74.20
14705;DHT22;7442;50.840;3.396;2023-06-22T11:15:25;24.10;73.80
14705;DHT22;7442;50.840;3.396;2023-06-22T11:17:56;24.10;73.30
14705;DHT22;7442;50.840;3.396;2023-06-22T11:20:42;24.10;73.20
14705;DHT22;7442;50.840;3.396;2023-06-22T11:23:28;24.10;71.40
14705;DHT22;7442;50.840;3.396;2023-06-22T11:26:15;24.00;71.70
14705;DHT22;7442;50.840;3.396;2023-06-22T11:29:01;24.00;71.40
14705;DHT22;7442;50.840;3.396;2023-06-22T11:31:49;24.00;70.50
14705;DHT22;7442;50.840;3.396;2023-06-22T11:34:36;24.00;70.40
14705;DHT22;7442;50.840;3.396;2023-06-22T11:37:22;23.90;70.30
14705;DHT22;7442;50.840;3.396;2023-06-22T11:40:08;24.00;69.80
14705;DHT22;7442;50.840;3.396;2023-06-22T11:42:54;24.00;70.20
14705;DHT22;7442;50.840;3.396;2023-06-22T11:45:40;23.90;69.60
14705;DHT22;7442;50.840;3.396;2023-06-22T11:48:27;23.90;70.50
14705;DHT22;7442;50.840;3.396;2023-06-22T11:51:13;24.00;71.10
14705;DHT22;7442;50.840;3.396;2023-06-22T11:53:59;24.00;70.80
14705;DHT22;7442;50.840;3.396;2023-06-22T11:56:46;24.00;71.50
14705;DHT22;7442;50.840;3.396;2023-06-22T11:59:32;24.00;71.70
14705;DHT22;7442;50.840;3.396;2023-06-22T12:02:18;24.00;72.00
14705;DHT22;7442;50.840;3.396;2023-06-22T12:05:05;24.00;70.50
14705;DHT22;7442;50.840;3.396;2023-06-22T12:07:56;23.90;71.20
14705;DHT22;7442;50.840;3.396;2023-06-22T12:10:44;23.90;70.30
14705;DHT22;7442;50.840;3.396;2023-06-22T12:13:31;23.90;71.20
14705;DHT22;7442;50.840;3.396;2023-06-22T12:16:17;23.90;70.20
14705;DHT22;7442;50.840;3.396;2023-06-22T12:19:03;23.90;70.50
14705;DHT22;7442;50.840;3.396;2023-06-22T12:21:50;23.90;71.00
14705;DHT22;7442;50.840;3.396;2023-06-22T12:24:36;23.90;71.00
14705;DHT22;7442;50.840;3.396;2023-06-22T12:27:23;24.00;71.40
14705;DHT22;7442;50.840;3.396;2023-06-22T12:30:09;24.00;71.40
14705;DHT22;7442;50.840;3.396;2023-06-22T12:32:55;24.10;71.10
14705;DHT22;7442;50.840;3.396;2023-06-22T12:35:42;24.10;71.50
14705;DHT22;7442;50.840;3.396;2023-06-22T12:38:28;24.10;71.50
14705;DHT22;7442;50.840;3.396;2023-06-22T12:41:14;24.20;70.30
14705;DHT22;7442;50.840;3.396;2023-06-22T12:44:01;24.20;70.80
14705;DHT22;7442;50.840;3.396;2023-06-22T12:46:48;24.20;70.50
14705;DHT22;7442;50.840;3.396;2023-06-22T12:49:35;24.20;69.80
14705;DHT22;7442;50.840;3.396;2023-06-22T12:52:21;24.20;70.00
14705;DHT22;7442;50.840;3.396;2023-06-22T12:55:08;24.20;71.10
14705;DHT22;7442;50.840;3.396;2023-06-22T12:57:54;24.30;72.30
14705;DHT22;7442;50.840;3.396;2023-06-22T13:00:40;24.40;71.10
14705;DHT22;7442;50.840;3.396;2023-06-22T13:03:26;24.50;71.50
14705;DHT22;7442;50.840;3.396;2023-06-22T13:06:12;24.50;71.40
14705;DHT22;7442;50.840;3.396;2023-06-22T13:08:59;24.50;70.40
14705;DHT22;7442;50.840;3.396;2023-06-22T13:11:45;24.60;69.30
14705;DHT22;7442;50.840;3.396;2023-06-22T13:14:32;24.60;68.30
14705;DHT22;7442;50.840;3.396;2023-06-22T13:17:18;24.70;68.60
14705;DHT22;7442;50.840;3.396;2023-06-22T13:20:05;24.60;69.00
14705;DHT22;7442;50.840;3.396;2023-06-22T13:22:52;24.70;68.90
14705;DHT22;7442;50.840;3.396;2023-06-22T13:25:39;24.70;68.80
14705;DHT22;7442;50.840;3.396;2023-06-22T13:28:25;24.80;68.30
14705;DHT22;7442;50.840;3.396;2023-06-22T13:31:12;24.80;68.60
14705;DHT22;7442;50.840;3.396;2023-06-22T13:33:58;24.80;68.10
14705;DHT22;7442;50.840;3.396;2023-06-22T13:36:44;24.80;68.60
14705;DHT22;7442;50.840;3.396;2023-06-22T13:39:31;24.80;68.70
14705;DHT22;7442;50.840;3.396;2023-06-22T13:42:18;24.90;68.20
14705;DHT22;7442;50.840;3.396;2023-06-22T13:45:05;24.90;68.00
14705;DHT22;7442;50.840;3.396;2023-06-22T13:47:51;24.90;68.30
14705;DHT22;7442;50.840;3.396;2023-06-22T13:50:37;24.90;68.00
14705;DHT22;7442;50.840;3.396;2023-06-22T13:53:25;24.90;67.70
14705;DHT22;7442;50.840;3.396;2023-06-22T13:56:11;24.90;67.60
14705;DHT22;7442;50.840;3.396;2023-06-22T13:58:57;24.90;66.90
14705;DHT22;7442;50.840;3.396;2023-06-22T14:01:43;24.90;66.80
14705;DHT22;7442;50.840;3.396;2023-06-22T14:04:30;24.90;66.40
14705;DHT22;7442;50.840;3.396;2023-06-22T14:07:16;24.90;67.00
14705;DHT22;7442;50.840;3.396;2023-06-22T14:10:05;24.90;67.40
14705;DHT22;7442;50.840;3.396;2023-06-22T14:12:51;24.90;67.60
14705;DHT22;7442;50.840;3.396;2023-06-22T14:15:38;24.90;67.40
14705;DHT22;7442;50.840;3.396;2023-06-22T14:18:24;24.90;67.20
14705;DHT22;7442;50.840;3.396;2023-06-22T14:21:10;25.00;67.30
14705;DHT22;7442;50.840;3.396;2023-06-22T14:23:57;24.90;66.90
14705;DHT22;7442;50.840;3.396;2023-06-22T14:26:43;25.00;66.50
14705;DHT22;7442;50.840;3.396;2023-06-22T14:29:29;24.90;66.00
14705;DHT22;7442;50.840;3.396;2023-06-22T14:32:15;24.90;65.20
14705;DHT22;7442;50.840;3.396;2023-06-22T14:35:01;24.90;64.90
14705;DHT22;7442;50.840;3.396;2023-06-22T14:37:48;24.90;64.30
14705;DHT22;7442;50.840;3.396;2023-06-22T14:40:34;24.90;64.30
14705;DHT22;7442;50.840;3.396;2023-06-22T14:43:20;24.90;63.70
14705;DHT22;7442;50.840;3.396;2023-06-22T14:46:07;24.90;64.10
14705;DHT22;7442;50.840;3.396;2023-06-22T14:48:53;24.90;64.60
14705;DHT22;7442;50.840;3.396;2023-06-22T14:51:40;24.90;64.80
14705;DHT22;7442;50.840;3.396;2023-06-22T14:54:26;24.80;65.20
14705;DHT22;7442;50.840;3.396;2023-06-22T14:57:12;24.80;65.40
14705;DHT22;7442;50.840;3.396;2023-06-22T15:00:00;24.70;65.50
14705;DHT22;7442;50.840;3.396;2023-06-22T15:02:49;24.70;65.00
14705;DHT22;7442;50.840;3.396;2023-06-22T15:05:36;24.70;64.50
14705;DHT22;7442;50.840;3.396;2023-06-22T15:08:23;24.60;64.30
14705;DHT22;7442;50.840;3.396;2023-06-22T15:11:11;24.60;64.50
14705;DHT22;7442;50.840;3.396;2023-06-22T15:14:01;24.50;63.80
14705;DHT22;7442;50.840;3.396;2023-06-22T15:16:48;24.50;63.60
14705;DHT22;7442;50.840;3.396;2023-06-22T15:19:36;24.50;63.30
14705;DHT22;7442;50.840;3.396;2023-06-22T15:22:23;24.50;62.60
14705;DHT22;7442;50.840;3.396;2023-06-22T15:25:11;24.50;62.60
14705;DHT22;7442;50.840;3.396;2023-06-22T15:27:57;24.40;62.60
14705;DHT22;7442;50.840;3.396;2023-06-22T15:30:43;24.40;62.80
14705;DHT22;7442;50.840;3.396;2023-06-22T15:33:30;24.40;63.20
14705;DHT22;7442;50.840;3.396;2023-06-22T15:36:17;24.40;63.50
14705;DHT22;7442;50.840;3.396;2023-06-22T15:39:03;24.40;63.70
14705;DHT22;7442;50.840;3.396;2023-06-22T15:41:50;24.40;63.90
14705;DHT22;7442;50.840;3.396;2023-06-22T15:44:37;24.40;64.40
14705;DHT22;7442;50.840;3.396;2023-06-22T15:47:23;24.40;64.70
14705;DHT22;7442;50.840;3.396;2023-06-22T15:50:11;24.40;64.70
14705;DHT22;7442;50.840;3.396;2023-06-22T15:52:58;24.40;65.40
14705;DHT22;7442;50.840;3.396;2023-06-22T15:55:44;24.40;65.50
14705;DHT22;7442;50.840;3.396;2023-06-22T15:58:32;24.40;65.30
14705;DHT22;7442;50.840;3.396;2023-06-22T16:01:18;24.40;65.20
14705;DHT22;7442;50.840;3.396;2023-06-22T16:04:07;24.40;65.80
14705;DHT22;7442;50.840;3.396;2023-06-22T16:06:54;24.40;66.00
14705;DHT22;7442;50.840;3.396;2023-06-22T16:09:42;24.40;66.10
14705;DHT22;7442;50.840;3.396;2023-06-22T16:12:28;24.50;66.20
14705;DHT22;7442;50.840;3.396;2023-06-22T16:15:15;24.50;65.60
14705;DHT22;7442;50.840;3.396;2023-06-22T16:18:02;24.60;65.20
14705;DHT22;7442;50.840;3.396;2023-06-22T16:20:48;24.60;65.20
14705;DHT22;7442;50.840;3.396;2023-06-22T16:23:34;24.60;65.70
14705;DHT22;7442;50.840;3.396;2023-06-22T16:26:21;24.50;66.10
14705;DHT22;7442;50.840;3.396;2023-06-22T16:29:08;24.50;66.50
14705;DHT22;7442;50.840;3.396;2023-06-22T16:31:54;24.50;66.90
14705;DHT22;7442;50.840;3.396;2023-06-22T16:34:41;24.40;67.20
14705;DHT22;7442;50.840;3.396;2023-06-22T16:37:27;24.40;67.10
14705;DHT22;7442;50.840;3.396;2023-06-22T16:40:13;24.40;67.30
14705;DHT22;7442;50.840;3.396;2023-06-22T16:43:00;24.40;67.60
14705;DHT22;7442;50.840;3.396;2023-06-22T16:45:46;24.40;67.90
14705;DHT22;7442;50.840;3.396;2023-06-22T16:48:39;24.40;68.00
14705;DHT22;7442;50.840;3.396;2023-06-22T16:51:25;24.40;67.80
14705;DHT22;7442;50.840;3.396;2023-06-22T16:54:12;24.40;67.50
14705;DHT22;7442;50.840;3.396;2023-06-22T16:57:02;24.40;67.60
14705;DHT22;7442;50.840;3.396;2023-06-22T16:59:52;24.30;67.40
14705;DHT22;7442;50.840;3.396;2023-06-22T17:02:46;24.30;68.20
14705;DHT22;7442;50.840;3.396;2023-06-22T17:05:31;24.30;67.90
14705;DHT22;7442;50.840;3.396;2023-06-22T17:08:18;24.40;67.90
14705;DHT22;7442;50.840;3.396;2023-06-22T17:11:04;24.40;67.30
14705;DHT22;7442;50.840;3.396;2023-06-22T17:13:51;24.50;67.40
14705;DHT22;7442;50.840;3.396;2023-06-22T17:16:38;24.40;67.40
14705;DHT22;7442;50.840;3.396;2023-06-22T17:19:25;24.30;67.60
14705;DHT22;7442;50.840;3.396;2023-06-22T17:22:11;24.30;67.60
14705;DHT22;7442;50.840;3.396;2023-06-22T17:24:58;24.40;67.70
14705;DHT22;7442;50.840;3.396;2023-06-22T17:27:50;24.40;67.50
14705;DHT22;7442;50.840;3.396;2023-06-22T17:30:37;24.30;67.60
14705;DHT22;7442;50.840;3.396;2023-06-22T17:33:24;24.30;68.00
14705;DHT22;7442;50.840;3.396;2023-06-22T17:36:14;24.20;68.20
14705;DHT22;7442;50.840;3.396;2023-06-22T17:39:01;24.20;68.50
14705;DHT22;7442;50.840;3.396;2023-06-22T17:41:48;24.20;68.30
14705;DHT22;7442;50.840;3.396;2023-06-22T17:44:35;24.20;68.50
14705;DHT22;7442;50.840;3.396;2023-06-22T17:47:24;24.20;68.50
14705;DHT22;7442;50.840;3.396;2023-06-22T17:50:12;24.20;68.70
14705;DHT22;7442;50.840;3.396;2023-06-22T17:52:59;24.20;68.80